sensor_id;sensor_type;location;lat;lon;timestamp;pressure;altitude;pressure_sealevel;temperature;humidity
13478;BME280;12598;62.382;17.344;2023-03-22T00:00:28;100322.72;;;22.54;21.26
13478;BME280;12598;62.382;17.344;2023-03-22T00:01:30;100312.31;;;22.51;20.47
13478;BME280;12598;62.382;17.344;2023-03-22T00:02:33;100320.22;;;22.52;21.62
13478;BME280;12598;62.382;17.344;2023-03-22T00:03:35;100312.13;;;22.52;21.33
13478;BME280;12598;62.382;17.344;2023-03-22T00:04:37;100315.84;;;22.51;20.79
13478;BME280;12598;62.382;17.344;2023-03-22T00:05:39;100314.00;;;22.52;20.67
13478;BME280;12598;62.382;17.344;2023-03-22T00:06:41;100304.25;;;22.51;21.18
13478;BME280;12598;62.382;17.344;2023-03-22T00:07:43;100304.25;;;22.51;21.00
13478;BME280;12598;62.382;17.344;2023-03-22T00:08:48;100307.75;;;22.51;20.88
13478;BME280;12598;62.382;17.344;2023-03-22T00:09:51;100299.41;;;22.47;21.28
13478;BME280;12598;62.382;17.344;2023-03-22T00:10:53;100291.31;;;22.47;21.02
13478;BME280;12598;62.382;17.344;2023-03-22T00:11:55;100301.34;;;22.52;20.71
13478;BME280;12598;62.382;17.344;2023-03-22T00:12:56;100298.00;;;22.50;21.34
13478;BME280;12598;62.382;17.344;2023-03-22T00:13:58;100286.31;;;22.44;20.86
13478;BME280;12598;62.382;17.344;2023-03-22T00:15:00;100286.31;;;22.44;20.88
13478;BME280;12598;62.382;17.344;2023-03-22T00:16:03;100301.72;;;22.49;20.80
13478;BME280;12598;62.382;17.344;2023-03-22T00:17:06;100303.38;;;22.50;21.40
13478;BME280;12598;62.382;17.344;2023-03-22T00:18:08;100291.31;;;22.47;20.83
13478;BME280;12598;62.382;17.344;2023-03-22T00:19:13;100295.31;;;22.50;20.88
13478;BME280;12598;62.382;17.344;2023-03-22T00:20:15;100290.94;;;22.49;21.44
13478;BME280;12598;62.382;17.344;2023-03-22T00:21:21;100292.63;;;22.50;20.85
13478;BME280;12598;62.382;17.344;2023-03-22T00:22:23;100278.22;;;22.44;21.22
13478;BME280;12598;62.382;17.344;2023-03-22T00:23:27;100290.94;;;22.49;20.76
13478;BME280;12598;62.382;17.344;2023-03-22T00:24:29;100290.94;;;22.49;21.22
13478;BME280;12598;62.382;17.344;2023-03-22T00:25:31;100290.94;;;22.49;20.67
13478;BME280;12598;62.382;17.344;2023-03-22T00:26:33;100276.38;;;22.44;21.52
13478;BME280;12598;62.382;17.344;2023-03-22T00:27:35;100277.69;;;22.48;20.91
13478;BME280;12598;62.382;17.344;2023-03-22T00:28:38;100264.09;;;22.42;20.91
13478;BME280;12598;62.382;17.344;2023-03-22T00:29:40;100258.06;;;22.40;21.05
13478;BME280;12598;62.382;17.344;2023-03-22T00:30:52;100270.25;;;22.50;20.91
13478;BME280;12598;62.382;17.344;2023-03-22T00:31:54;100270.03;;;22.51;21.38
13478;BME280;12598;62.382;17.344;2023-03-22T00:32:56;100270.25;;;22.50;20.90
13478;BME280;12598;62.382;17.344;2023-03-22T00:33:59;100267.72;;;22.48;20.77
13478;BME280;12598;62.382;17.344;2023-03-22T00:35:02;100266.69;;;22.49;21.25
13478;BME280;12598;62.382;17.344;2023-03-22T00:36:09;100243.97;;;22.38;21.07
13478;BME280;12598;62.382;17.344;2023-03-22T00:37:12;100250.25;;;22.45;20.77
13478;BME280;12598;62.382;17.344;2023-03-22T00:38:14;100257.78;;;22.49;21.02
13478;BME280;12598;62.382;17.344;2023-03-22T00:39:15;100247.00;;;22.49;21.35
13478;BME280;12598;62.382;17.344;2023-03-22T00:40:17;100250.72;;;22.48;21.11
13478;BME280;12598;62.382;17.344;2023-03-22T00:41:21;100249.25;;;22.46;20.63
13478;BME280;12598;62.382;17.344;2023-03-22T00:42:23;100250.72;;;22.48;21.15
13478;BME280;12598;62.382;17.344;2023-03-22T00:43:25;100246.16;;;22.48;20.49
13478;BME280;12598;62.382;17.344;2023-03-22T00:44:27;100241.81;;;22.48;21.25
13478;BME280;12598;62.382;17.344;2023-03-22T00:45:29;100243.84;;;22.46;20.60
13478;BME280;12598;62.382;17.344;2023-03-22T00:46:31;100241.16;;;22.46;21.00
13478;BME280;12598;62.382;17.344;2023-03-22T00:47:33;100242.81;;;22.47;20.98
13478;BME280;12598;62.382;17.344;2023-03-22T00:48:36;100234.31;;;22.43;20.81
13478;BME280;12598;62.382;17.344;2023-03-22T00:49:38;100230.75;;;22.43;20.89
13478;BME280;12598;62.382;17.344;2023-03-22T00:50:40;100223.25;;;22.38;21.02
13478;BME280;12598;62.382;17.344;2023-03-22T00:51:42;100236.63;;;22.46;20.40
13478;BME280;12598;62.382;17.344;2023-03-22T00:52:44;100237.44;;;22.47;20.68
13478;BME280;12598;62.382;17.344;2023-03-22T00:53:47;100225.00;;;22.46;20.86
13478;BME280;12598;62.382;17.344;2023-03-22T00:54:53;100226.66;;;22.47;20.87
13478;BME280;12598;62.382;17.344;2023-03-22T00:55:58;100225.84;;;22.46;21.37
13478;BME280;12598;62.382;17.344;2023-03-22T00:57:03;100219.22;;;22.48;21.16
13478;BME280;12598;62.382;17.344;2023-03-22T00:58:05;100213.56;;;22.44;20.99
13478;BME280;12598;62.382;17.344;2023-03-22T00:59:07;100207.53;;;22.42;21.24
13478;BME280;12598;62.382;17.344;2023-03-22T01:00:09;100217.75;;;22.46;20.73
13478;BME280;12598;62.382;17.344;2023-03-22T01:01:14;100217.56;;;22.48;21.05
13478;BME280;12598;62.382;17.344;2023-03-22T01:02:16;100215.88;;;22.47;20.70
13478;BME280;12598;62.382;17.344;2023-03-22T01:03:18;100208.00;;;22.45;21.21
13478;BME280;12598;62.382;17.344;2023-03-22T01:04:22;100211.53;;;22.46;20.58
13478;BME280;12598;62.382;17.344;2023-03-22T01:05:27;100209.69;;;22.46;20.54
13478;BME280;12598;62.382;17.344;2023-03-22T01:06:29;100203.00;;;22.42;20.80
13478;BME280;12598;62.382;17.344;2023-03-22T01:07:31;100206.13;;;22.46;21.01
13478;BME280;12598;62.382;17.344;2023-03-22T01:08:36;100202.63;;;22.45;20.79
13478;BME280;12598;62.382;17.344;2023-03-22T01:09:39;100208.81;;;22.46;20.94
13478;BME280;12598;62.382;17.344;2023-03-22T01:10:42;100200.09;;;22.44;21.31
13478;BME280;12598;62.382;17.344;2023-03-22T01:11:44;100203.63;;;22.44;21.21
13478;BME280;12598;62.382;17.344;2023-03-22T01:12:47;100195.94;;;22.41;20.92
13478;BME280;12598;62.382;17.344;2023-03-22T01:13:49;100184.69;;;22.38;21.09
13478;BME280;12598;62.382;17.344;2023-03-22T01:14:51;100187.00;;;22.41;20.70
13478;BME280;12598;62.382;17.344;2023-03-22T01:15:53;100194.72;;;22.44;20.57
13478;BME280;12598;62.382;17.344;2023-03-22T01:16:55;100183.94;;;22.44;21.35
13478;BME280;12598;62.382;17.344;2023-03-22T01:17:59;100183.94;;;22.44;21.36
13478;BME280;12598;62.382;17.344;2023-03-22T01:19:02;100183.94;;;22.44;21.06
13478;BME280;12598;62.382;17.344;2023-03-22T01:20:04;100181.81;;;22.39;20.93
13478;BME280;12598;62.382;17.344;2023-03-22T01:21:07;100171.41;;;22.36;21.44
13478;BME280;12598;62.382;17.344;2023-03-22T01:22:09;100181.44;;;22.42;21.30
13478;BME280;12598;62.382;17.344;2023-03-22T01:23:11;100172.72;;;22.40;21.09
13478;BME280;12598;62.382;17.344;2023-03-22T01:24:14;100184.97;;;22.43;20.94
13478;BME280;12598;62.382;17.344;2023-03-22T01:25:16;100178.75;;;22.42;21.07
13478;BME280;12598;62.382;17.344;2023-03-22T01:26:18;100176.06;;;22.42;20.99
13478;BME280;12598;62.382;17.344;2023-03-22T01:27:20;100176.88;;;22.43;20.96
13478;BME280;12598;62.382;17.344;2023-03-22T01:28:22;100172.50;;;22.42;21.75
13478;BME280;12598;62.382;17.344;2023-03-22T01:29:27;100174.19;;;22.43;21.45
13478;BME280;12598;62.382;17.344;2023-03-22T01:30:29;100168.78;;;22.43;21.17
13478;BME280;12598;62.382;17.344;2023-03-22T01:31:31;100161.56;;;22.43;21.16
13478;BME280;12598;62.382;17.344;2023-03-22T01:32:35;100172.50;;;22.42;20.68
13478;BME280;12598;62.382;17.344;2023-03-22T01:33:38;100165.28;;;22.42;21.27
13478;BME280;12598;62.382;17.344;2023-03-22T01:34:39;100159.03;;;22.42;21.60
13478;BME280;12598;62.382;17.344;2023-03-22T01:35:41;100160.72;;;22.43;21.34
13478;BME280;12598;62.382;17.344;2023-03-22T01:36:44;100149.00;;;22.36;21.09
13478;BME280;12598;62.382;17.344;2023-03-22T01:37:46;100157.00;;;22.44;20.77
13478;BME280;12598;62.382;17.344;2023-03-22T01:38:49;100155.31;;;22.43;20.71
13478;BME280;12598;62.382;17.344;2023-03-22T01:39:53;100148.25;;;22.42;21.06
13478;BME280;12598;62.382;17.344;2023-03-22T01:40:56;100146.22;;;22.44;20.86
13478;BME280;12598;62.382;17.344;2023-03-22T01:42:01;100152.63;;;22.43;21.84
13478;BME280;12598;62.382;17.344;2023-03-22T01:43:12;100149.94;;;22.43;21.06
13478;BME280;12598;62.382;17.344;2023-03-22T01:44:21;100133.69;;;22.36;21.44
13478;BME280;12598;62.382;17.344;2023-03-22T01:45:33;100141.47;;;22.46;21.40
13478;BME280;12598;62.382;17.344;2023-03-22T01:46:36;100141.28;;;22.47;21.33
13478;BME280;12598;62.382;17.344;2023-03-22T01:47:47;100143.34;;;22.45;21.34
13478;BME280;12598;62.382;17.344;2023-03-22T01:48:52;100144.16;;;22.46;20.79
13478;BME280;12598;62.382;17.344;2023-03-22T01:49:56;100140.81;;;22.44;21.36
13478;BME280;12598;62.382;17.344;2023-03-22T01:52:11;100140.00;;;22.43;21.14
13478;BME280;12598;62.382;17.344;2023-03-22T01:53:27;100146.69;;;22.47;21.18
13478;BME280;12598;62.382;17.344;2023-03-22T01:54:43;100135.91;;;22.47;20.76
13478;BME280;12598;62.382;17.344;2023-03-22T01:56:12;100129.50;;;22.48;20.73
13478;BME280;12598;62.382;17.344;2023-03-22T01:57:15;100106.28;;;22.33;20.79
13478;BME280;12598;62.382;17.344;2023-03-22T01:58:17;100134.41;;;22.45;20.73
13478;BME280;12598;62.382;17.344;2023-03-22T01:59:32;100129.88;;;22.45;21.30
13478;BME280;12598;62.382;17.344;2023-03-22T02:00:47;100128.00;;;22.46;20.53
13478;BME280;12598;62.382;17.344;2023-03-22T02:02:01;100128.84;;;22.46;20.97
13478;BME280;12598;62.382;17.344;2023-03-22T02:03:04;100129.03;;;22.45;21.57
13478;BME280;12598;62.382;17.344;2023-03-22T02:04:16;100111.97;;;22.38;20.88
13478;BME280;12598;62.382;17.344;2023-03-22T02:05:20;100113.88;;;22.44;21.26
13478;BME280;12598;62.382;17.344;2023-03-22T02:06:27;100115.94;;;22.42;20.89
13478;BME280;12598;62.382;17.344;2023-03-22T02:07:42;100109.72;;;22.41;20.83
13478;BME280;12598;62.382;17.344;2023-03-22T02:08:44;100108.06;;;22.40;20.95
13478;BME280;12598;62.382;17.344;2023-03-22T02:09:51;100097.00;;;22.35;21.50
13478;BME280;12598;62.382;17.344;2023-03-22T02:10:54;100108.25;;;22.39;21.00
13478;BME280;12598;62.382;17.344;2023-03-22T02:14:41;100099.22;;;22.46;20.70
13478;BME280;12598;62.382;17.344;2023-03-22T02:16:37;100091.19;;;22.52;21.35
13478;BME280;12598;62.382;17.344;2023-03-22T02:24:15;100083.09;;;22.52;21.38
13478;BME280;12598;62.382;17.344;2023-03-22T02:25:39;100090.38;;;22.52;20.79
13478;BME280;12598;62.382;17.344;2023-03-22T02:27:26;100080.88;;;22.56;21.47
13478;BME280;12598;62.382;17.344;2023-03-22T02:28:42;100080.41;;;22.52;20.55
13478;BME280;12598;62.382;17.344;2023-03-22T02:30:15;100072.31;;;22.52;21.38
13478;BME280;12598;62.382;17.344;2023-03-22T02:31:32;100070.00;;;22.49;21.33
13478;BME280;12598;62.382;17.344;2023-03-22T02:35:38;100065.00;;;22.47;21.26
13478;BME280;12598;62.382;17.344;2023-03-22T02:39:53;100060.47;;;22.47;21.29
13478;BME280;12598;62.382;17.344;2023-03-22T02:42:10;100056.03;;;22.40;21.12
13478;BME280;12598;62.382;17.344;2023-03-22T02:43:33;100059.75;;;22.39;20.88
13478;BME280;12598;62.382;17.344;2023-03-22T02:47:38;100041.16;;;22.44;20.96
13478;BME280;12598;62.382;17.344;2023-03-22T02:51:51;100024.34;;;22.42;20.84
13478;BME280;12598;62.382;17.344;2023-03-22T02:54:27;100027.88;;;22.42;21.48
13478;BME280;12598;62.382;17.344;2023-03-22T02:55:34;100031.78;;;22.40;20.80
13478;BME280;12598;62.382;17.344;2023-03-22T02:56:42;100028.47;;;22.38;20.98
13478;BME280;12598;62.382;17.344;2023-03-22T02:58:03;100026.13;;;22.35;21.20
13478;BME280;12598;62.382;17.344;2023-03-22T02:59:07;100013.69;;;22.34;21.47
13478;BME280;12598;62.382;17.344;2023-03-22T03:00:13;100001.38;;;22.25;20.93
13478;BME280;12598;62.382;17.344;2023-03-22T03:01:21;100006.63;;;22.33;21.55
13478;BME280;12598;62.382;17.344;2023-03-22T03:02:25;100011.84;;;22.34;21.62
13478;BME280;12598;62.382;17.344;2023-03-22T03:03:29;100012.19;;;22.31;20.96
13478;BME280;12598;62.382;17.344;2023-03-22T03:04:41;99990.78;;;22.23;21.19
13478;BME280;12598;62.382;17.344;2023-03-22T03:05:47;100003.69;;;22.28;21.66
13478;BME280;12598;62.382;17.344;2023-03-22T03:06:57;100004.78;;;22.33;21.45
13478;BME280;12598;62.382;17.344;2023-03-22T03:08:02;100005.59;;;22.34;21.54
13478;BME280;12598;62.382;17.344;2023-03-22T03:09:07;99992.06;;;22.27;21.18
13478;BME280;12598;62.382;17.344;2023-03-22T03:10:12;100003.28;;;22.31;21.34
13478;BME280;12598;62.382;17.344;2023-03-22T03:11:16;100003.09;;;22.32;21.16
13478;BME280;12598;62.382;17.344;2023-03-22T03:12:22;99999.41;;;22.33;21.66
13478;BME280;12598;62.382;17.344;2023-03-22T03:13:27;99994.81;;;22.34;20.85
13478;BME280;12598;62.382;17.344;2023-03-22T03:14:31;99982.78;;;22.30;21.54
13478;BME280;12598;62.382;17.344;2023-03-22T03:15:34;99998.53;;;22.33;21.76
13478;BME280;12598;62.382;17.344;2023-03-22T03:16:38;99989.63;;;22.32;21.33
13478;BME280;12598;62.382;17.344;2023-03-22T03:17:53;99980.53;;;22.33;21.91
13478;BME280;12598;62.382;17.344;2023-03-22T03:19:06;99978.31;;;22.37;21.66
13478;BME280;12598;62.382;17.344;2023-03-22T03:22:01;99980.84;;;22.45;21.69
13478;BME280;12598;62.382;17.344;2023-03-22T03:24:25;99968.53;;;22.36;21.89
13478;BME280;12598;62.382;17.344;2023-03-22T03:27:33;99962.47;;;22.48;21.92
13478;BME280;12598;62.382;17.344;2023-03-22T03:31:02;99968.16;;;22.39;21.98
13478;BME280;12598;62.382;17.344;2023-03-22T03:33:16;99958.78;;;22.35;22.01
13478;BME280;12598;62.382;17.344;2023-03-22T03:34:33;99963.13;;;22.36;21.26
13478;BME280;12598;62.382;17.344;2023-03-22T03:35:49;99956.28;;;22.33;21.40
13478;BME280;12598;62.382;17.344;2023-03-22T03:37:01;99960.44;;;22.36;21.57
13478;BME280;12598;62.382;17.344;2023-03-22T03:38:12;99956.75;;;22.37;21.95
13478;BME280;12598;62.382;17.344;2023-03-22T03:39:19;99957.13;;;22.34;21.43
13478;BME280;12598;62.382;17.344;2023-03-22T03:41:31;99940.88;;;22.27;21.77
13478;BME280;12598;62.382;17.344;2023-03-22T03:42:36;99953.16;;;22.30;21.56
13478;BME280;12598;62.382;17.344;2023-03-22T03:43:40;99951.28;;;22.30;21.88
13478;BME280;12598;62.382;17.344;2023-03-22T03:44:43;99946.72;;;22.31;21.89
13478;BME280;12598;62.382;17.344;2023-03-22T03:45:46;99946.91;;;22.29;21.70
13478;BME280;12598;62.382;17.344;2023-03-22T03:46:49;99947.75;;;22.30;21.59
13478;BME280;12598;62.382;17.344;2023-03-22T03:47:57;99945.06;;;22.30;21.02
13478;BME280;12598;62.382;17.344;2023-03-22T03:49:01;99910.06;;;22.09;21.15
13478;BME280;12598;62.382;17.344;2023-03-22T03:50:05;99939.69;;;22.30;21.68
13478;BME280;12598;62.382;17.344;2023-03-22T03:51:08;99932.41;;;22.30;22.06
13478;BME280;12598;62.382;17.344;2023-03-22T03:52:10;99940.50;;;22.30;21.45
13478;BME280;12598;62.382;17.344;2023-03-22T03:53:13;99940.50;;;22.30;21.36
13478;BME280;12598;62.382;17.344;2023-03-22T03:54:16;99935.13;;;22.30;21.78
13478;BME280;12598;62.382;17.344;2023-03-22T03:55:19;99933.44;;;22.29;21.69
13478;BME280;12598;62.382;17.344;2023-03-22T03:56:22;99924.56;;;22.29;22.18
13478;BME280;12598;62.382;17.344;2023-03-22T03:57:25;99927.03;;;22.30;21.64
13478;BME280;12598;62.382;17.344;2023-03-22T03:58:27;99921.84;;;22.29;21.58
13478;BME280;12598;62.382;17.344;2023-03-22T03:59:31;99927.03;;;22.30;21.18
13478;BME280;12598;62.382;17.344;2023-03-22T04:00:37;99907.13;;;22.25;21.68
13478;BME280;12598;62.382;17.344;2023-03-22T04:02:13;99918.66;;;22.40;20.98
13478;BME280;12598;62.382;17.344;2023-03-22T04:03:17;99913.66;;;22.37;21.12
13478;BME280;12598;62.382;17.344;2023-03-22T04:04:34;99904.66;;;22.30;21.56
13478;BME280;12598;62.382;17.344;2023-03-22T04:05:37;99867.44;;;22.12;21.47
13478;BME280;12598;62.382;17.344;2023-03-22T04:06:39;99911.50;;;22.32;21.58
13478;BME280;12598;62.382;17.344;2023-03-22T04:07:49;99901.13;;;22.29;21.74
13478;BME280;12598;62.382;17.344;2023-03-22T04:08:51;99895.31;;;22.26;22.00
13478;BME280;12598;62.382;17.344;2023-03-22T04:09:58;99897.41;;;22.30;21.51
13478;BME280;12598;62.382;17.344;2023-03-22T04:11:05;99895.56;;;22.31;21.92
13478;BME280;12598;62.382;17.344;2023-03-22T04:12:08;99896.59;;;22.30;21.19
13478;BME280;12598;62.382;17.344;2023-03-22T04:13:12;99892.03;;;22.30;21.19
13478;BME280;12598;62.382;17.344;2023-03-22T04:14:14;99894.72;;;22.30;21.93
13478;BME280;12598;62.382;17.344;2023-03-22T04:15:20;99892.22;;;22.29;21.45
13478;BME280;12598;62.382;17.344;2023-03-22T04:16:26;99887.47;;;22.31;21.35
13478;BME280;12598;62.382;17.344;2023-03-22T04:17:28;99886.63;;;22.30;21.36
13478;BME280;12598;62.382;17.344;2023-03-22T04:18:33;99885.81;;;22.30;21.91
13478;BME280;12598;62.382;17.344;2023-03-22T04:19:38;99860.84;;;22.15;21.42
13478;BME280;12598;62.382;17.344;2023-03-22T04:20:40;99885.81;;;22.30;21.61
13478;BME280;12598;62.382;17.344;2023-03-22T04:21:43;99883.13;;;22.30;22.05
13478;BME280;12598;62.382;17.344;2023-03-22T04:22:47;99873.38;;;22.29;22.21
13478;BME280;12598;62.382;17.344;2023-03-22T04:23:49;99870.69;;;22.29;21.36
13478;BME280;12598;62.382;17.344;2023-03-22T04:24:52;99868.00;;;22.29;21.99
13478;BME280;12598;62.382;17.344;2023-03-22T04:25:55;99879.59;;;22.29;21.37
13478;BME280;12598;62.382;17.344;2023-03-22T04:27:13;99859.06;;;22.28;21.58
13478;BME280;12598;62.382;17.344;2023-03-22T04:28:27;99866.38;;;22.34;21.49
13478;BME280;12598;62.382;17.344;2023-03-22T04:29:29;99854.31;;;22.30;22.20
13478;BME280;12598;62.382;17.344;2023-03-22T04:30:53;99858.09;;;22.36;21.44
13478;BME280;12598;62.382;17.344;2023-03-22T04:32:18;99855.25;;;22.37;21.69
13478;BME280;12598;62.382;17.344;2023-03-22T04:33:20;99856.44;;;22.35;22.21
13478;BME280;12598;62.382;17.344;2023-03-22T04:34:51;99854.41;;;22.37;21.55
13478;BME280;12598;62.382;17.344;2023-03-22T04:35:54;99854.75;;;22.34;21.50
13478;BME280;12598;62.382;17.344;2023-03-22T04:37:04;99849.56;;;22.32;22.11
13478;BME280;12598;62.382;17.344;2023-03-22T04:38:10;99848.75;;;22.32;22.23
13478;BME280;12598;62.382;17.344;2023-03-22T04:39:13;99842.72;;;22.30;21.92
13478;BME280;12598;62.382;17.344;2023-03-22T04:40:23;99823.97;;;22.15;21.81
13478;BME280;12598;62.382;17.344;2023-03-22T04:41:36;99826.50;;;22.23;22.22
13478;BME280;12598;62.382;17.344;2023-03-22T04:42:38;99834.81;;;22.28;22.04
13478;BME280;12598;62.382;17.344;2023-03-22T04:43:50;99826.56;;;22.30;21.99
13478;BME280;12598;62.382;17.344;2023-03-22T04:44:53;99835.69;;;22.29;22.38
13478;BME280;12598;62.382;17.344;2023-03-22T04:45:54;99828.81;;;22.26;21.57
13478;BME280;12598;62.382;17.344;2023-03-22T04:47:05;99832.97;;;22.29;21.79
13478;BME280;12598;62.382;17.344;2023-03-22T04:48:07;99824.91;;;22.29;21.62
13478;BME280;12598;62.382;17.344;2023-03-22T04:49:11;99826.13;;;22.26;21.89
13478;BME280;12598;62.382;17.344;2023-03-22T04:50:14;99820.94;;;22.25;22.26
13478;BME280;12598;62.382;17.344;2023-03-22T04:51:25;99817.00;;;22.27;22.00
13478;BME280;12598;62.382;17.344;2023-03-22T04:52:54;99816.25;;;22.33;21.85
13478;BME280;12598;62.382;17.344;2023-03-22T04:53:56;99813.50;;;22.27;22.13
13478;BME280;12598;62.382;17.344;2023-03-22T04:54:59;99815.97;;;22.28;21.65
13478;BME280;12598;62.382;17.344;2023-03-22T04:56:01;99816.19;;;22.27;22.32
13478;BME280;12598;62.382;17.344;2023-03-22T04:57:06;99814.53;;;22.26;22.26
13478;BME280;12598;62.382;17.344;2023-03-22T04:58:16;99801.47;;;22.23;22.30
13478;BME280;12598;62.382;17.344;2023-03-22T04:59:23;99810.81;;;22.27;22.01
13478;BME280;12598;62.382;17.344;2023-03-22T05:00:25;99804.56;;;22.26;22.36
13478;BME280;12598;62.382;17.344;2023-03-22T05:01:31;99794.41;;;22.22;22.32
13478;BME280;12598;62.382;17.344;2023-03-22T05:02:43;99796.50;;;22.26;21.77
13478;BME280;12598;62.382;17.344;2023-03-22T05:03:54;99798.78;;;22.29;21.60
13478;BME280;12598;62.382;17.344;2023-03-22T05:04:57;99805.19;;;22.28;22.23
13478;BME280;12598;62.382;17.344;2023-03-22T05:06:12;99789.25;;;22.27;21.82
13478;BME280;12598;62.382;17.344;2023-03-22T05:07:29;99787.19;;;22.29;21.97
13478;BME280;12598;62.382;17.344;2023-03-22T05:08:33;99795.28;;;22.29;21.95
13478;BME280;12598;62.382;17.344;2023-03-22T05:09:36;99791.75;;;22.28;22.01
13478;BME280;12598;62.382;17.344;2023-03-22T05:10:38;99775.97;;;22.19;21.75
13478;BME280;12598;62.382;17.344;2023-03-22T05:11:41;99786.75;;;22.25;21.59
13478;BME280;12598;62.382;17.344;2023-03-22T05:12:53;99780.97;;;22.28;22.22
13478;BME280;12598;62.382;17.344;2023-03-22T05:14:02;99778.47;;;22.27;22.25
13478;BME280;12598;62.382;17.344;2023-03-22T05:15:06;99779.31;;;22.27;21.76
13478;BME280;12598;62.382;17.344;2023-03-22T05:16:12;99777.63;;;22.26;22.03
13478;BME280;12598;62.382;17.344;2023-03-22T05:17:21;99769.16;;;22.23;21.89
13478;BME280;12598;62.382;17.344;2023-03-22T05:18:26;99771.22;;;22.27;22.20
13478;BME280;12598;62.382;17.344;2023-03-22T05:19:30;99775.56;;;22.28;21.79
13478;BME280;12598;62.382;17.344;2023-03-22T05:20:34;99767.72;;;22.27;21.52
13478;BME280;12598;62.382;17.344;2023-03-22T05:21:45;99764.81;;;22.28;22.26
13478;BME280;12598;62.382;17.344;2023-03-22T05:22:46;99766.88;;;22.26;22.05
13478;BME280;12598;62.382;17.344;2023-03-22T05:23:54;99763.34;;;22.26;21.92
13478;BME280;12598;62.382;17.344;2023-03-22T05:24:57;99762.31;;;22.27;21.57
13478;BME280;12598;62.382;17.344;2023-03-22T05:26:00;99761.47;;;22.26;22.22
13478;BME280;12598;62.382;17.344;2023-03-22T05:27:05;99763.34;;;22.26;22.29
13478;BME280;12598;62.382;17.344;2023-03-22T05:28:07;99754.44;;;22.25;22.44
13478;BME280;12598;62.382;17.344;2023-03-22T05:29:15;99757.13;;;22.25;21.93
13478;BME280;12598;62.382;17.344;2023-03-22T05:30:33;99743.88;;;22.30;22.04
13478;BME280;12598;62.382;17.344;2023-03-22T05:31:42;99746.59;;;22.30;21.46
13478;BME280;12598;62.382;17.344;2023-03-22T05:32:44;99734.53;;;22.20;21.61
13478;BME280;12598;62.382;17.344;2023-03-22T05:33:50;99739.13;;;22.26;21.55
13478;BME280;12598;62.382;17.344;2023-03-22T05:34:54;99735.78;;;22.24;22.01
13478;BME280;12598;62.382;17.344;2023-03-22T05:36:04;99736.22;;;22.27;21.66
13478;BME280;12598;62.382;17.344;2023-03-22T05:37:11;99731.66;;;22.28;21.41
13478;BME280;12598;62.382;17.344;2023-03-22T05:38:26;99728.75;;;22.29;21.36
13478;BME280;12598;62.382;17.344;2023-03-22T05:39:32;99727.31;;;22.27;21.56
13478;BME280;12598;62.382;17.344;2023-03-22T05:40:34;99726.69;;;22.25;21.34
13478;BME280;12598;62.382;17.344;2023-03-22T05:41:36;99721.31;;;22.25;21.29
13478;BME280;12598;62.382;17.344;2023-03-22T05:42:39;99720.66;;;22.23;22.08
13478;BME280;12598;62.382;17.344;2023-03-22T05:43:49;99718.59;;;22.25;22.10
13478;BME280;12598;62.382;17.344;2023-03-22T05:44:53;99721.31;;;22.25;21.88
13478;BME280;12598;62.382;17.344;2023-03-22T05:45:55;99708.25;;;22.22;21.98
13478;BME280;12598;62.382;17.344;2023-03-22T05:47:34;99709.28;;;22.27;21.36
13478;BME280;12598;62.382;17.344;2023-03-22T05:48:44;99706.41;;;22.29;21.63
13478;BME280;12598;62.382;17.344;2023-03-22T05:49:50;99708.47;;;22.27;21.43
13478;BME280;12598;62.382;17.344;2023-03-22T05:50:54;99698.69;;;22.19;21.67
13478;BME280;12598;62.382;17.344;2023-03-22T05:51:56;99708.03;;;22.23;21.38
13478;BME280;12598;62.382;17.344;2023-03-22T05:53:04;99702.63;;;22.23;21.68
13478;BME280;12598;62.382;17.344;2023-03-22T05:54:38;99696.25;;;22.31;22.10
13478;BME280;12598;62.382;17.344;2023-03-22T05:55:40;99695.00;;;22.27;21.96
13478;BME280;12598;62.382;17.344;2023-03-22T05:56:42;99692.72;;;22.24;22.03
13478;BME280;12598;62.382;17.344;2023-03-22T05:57:45;99693.94;;;22.21;22.19
13478;BME280;12598;62.382;17.344;2023-03-22T05:58:48;99693.13;;;22.21;21.80
13478;BME280;12598;62.382;17.344;2023-03-22T05:59:53;99677.31;;;22.11;22.05
13478;BME280;12598;62.382;17.344;2023-03-22T06:01:05;99690.41;;;22.21;22.38
13478;BME280;12598;62.382;17.344;2023-03-22T06:02:19;99689.81;;;22.25;22.06
13478;BME280;12598;62.382;17.344;2023-03-22T06:03:22;99677.78;;;22.21;22.16
13478;BME280;12598;62.382;17.344;2023-03-22T06:04:30;99684.81;;;22.22;21.79
13478;BME280;12598;62.382;17.344;2023-03-22T06:05:39;99675.28;;;22.20;21.96
13478;BME280;12598;62.382;17.344;2023-03-22T06:06:42;99675.28;;;22.20;21.89
13478;BME280;12598;62.382;17.344;2023-03-22T06:07:58;99674.91;;;22.23;21.82
13478;BME280;12598;62.382;17.344;2023-03-22T06:09:00;99672.19;;;22.23;21.59
13478;BME280;12598;62.382;17.344;2023-03-22T06:10:19;99675.94;;;22.28;21.61
13478;BME280;12598;62.382;17.344;2023-03-22T06:11:21;99674.50;;;22.26;21.72
13478;BME280;12598;62.382;17.344;2023-03-22T06:12:24;99670.75;;;22.27;22.02
13478;BME280;12598;62.382;17.344;2023-03-22T06:13:51;99665.78;;;22.30;21.97
13478;BME280;12598;62.382;17.344;2023-03-22T06:14:55;99678.66;;;22.35;21.20
13478;BME280;12598;62.382;17.344;2023-03-22T06:16:22;99661.31;;;22.44;21.87
13478;BME280;12598;62.382;17.344;2023-03-22T06:17:25;99662.97;;;22.45;21.26
13478;BME280;12598;62.382;17.344;2023-03-22T06:18:28;99658.44;;;22.45;21.07
13478;BME280;12598;62.382;17.344;2023-03-22T06:19:37;99664.88;;;22.50;21.03
13478;BME280;12598;62.382;17.344;2023-03-22T06:20:40;99657.41;;;22.52;21.66